Time;durP1;ratioP1;P1;durP2;ratioP2;P2;SDS_P1;SDS_P2;PMS_P1;PMS_P2;Temp;Humidity;BMP_temperature;BMP_pressure;BME280_temperature;BME280_humidity;BME280_pressure;Samples;Min_cycle;Max_cycle;Signal;HPM_P1;HPM_P2
2021/01/26 00:02:13;;;;;;;0.70;0.60;;;;;;;;;;5056748;28;20194;-63
2021/01/26 00:04:41;;;;;;;0.27;0.27;;;;;;;;;;5054207;28;20237;-62
2021/01/26 00:07:07;;;;;;;0.00;0.00;;;;;;;;;;5052471;28;20194;-61
2021/01/26 00:09:34;;;;;;;5.20;2.00;;;;;;;;;;5049872;28;20179;-63
2021/01/26 00:12:01;;;;;;;0.00;0.00;;;;;;;;;;5051244;28;20187;-62
2021/01/26 00:14:27;;;;;;;0.10;0.10;;;;;;;;;;5050931;28;20216;-62
2021/01/26 00:16:54;;;;;;;0.23;0.23;;;;;;;;;;5059252;28;20189;-61
2021/01/26 00:19:21;;;;;;;0.00;0.00;;;;;;;;;;5057003;28;20217;-63
2021/01/26 00:21:48;;;;;;;3.83;0.27;;;;;;;;;;5052753;28;20201;-62
2021/01/26 00:24:15;;;;;;;0.10;0.10;;;;;;;;;;5050176;28;20655;-63
2021/01/26 00:26:41;;;;;;;16.37;1.97;;;;;;;;;;5053294;28;20281;-64
2021/01/26 00:29:09;;;;;;;0.20;0.20;;;;;;;;;;5051615;28;20552;-62
2021/01/26 00:31:36;;;;;;;17.63;1.30;;;;;;;;;;5054882;28;20194;-61
2021/01/26 00:34:03;;;;;;;0.10;0.10;;;;;;;;;;5056421;28;20191;-62
2021/01/26 00:36:30;;;;;;;1.47;1.33;;;;;;;;;;5044159;28;20209;-62
2021/01/26 00:38:57;;;;;;;0.60;0.10;;;;;;;;;;5051722;28;20424;-64
2021/01/26 00:41:26;;;;;;;0.30;0.30;;;;;;;;;;5053265;28;20186;-65
2021/01/26 00:43:52;;;;;;;0.00;0.00;;;;;;;;;;5051925;28;20183;-64
2021/01/26 00:46:19;;;;;;;0.37;0.37;;;;;;;;;;5055140;28;20197;-63
2021/01/26 00:48:45;;;;;;;0.37;0.20;;;;;;;;;;5051042;28;20179;-64
2021/01/26 00:51:12;;;;;;;0.20;0.20;;;;;;;;;;5053854;28;20218;-63
2021/01/26 00:53:39;;;;;;;0.10;0.10;;;;;;;;;;5045897;28;20186;-61
2021/01/26 00:56:06;;;;;;;0.23;0.23;;;;;;;;;;5056203;28;20186;-63
2021/01/26 00:58:33;;;;;;;0.00;0.00;;;;;;;;;;5049498;28;20268;-63
2021/01/26 01:00:59;;;;;;;0.00;0.00;;;;;;;;;;5056933;28;20555;-61
2021/01/26 01:03:26;;;;;;;0.00;0.00;;;;;;;;;;5050432;28;20190;-62
2021/01/26 01:05:52;;;;;;;0.20;0.20;;;;;;;;;;5047955;28;20540;-63
2021/01/26 01:08:21;;;;;;;0.00;0.00;;;;;;;;;;5043866;28;20686;-61
2021/01/26 01:10:50;;;;;;;0.00;0.00;;;;;;;;;;5053977;28;20190;-63
2021/01/26 01:13:17;;;;;;;0.30;0.30;;;;;;;;;;5055326;28;20297;-63
2021/01/26 01:15:43;;;;;;;0.10;0.10;;;;;;;;;;5050985;28;20189;-64
2021/01/26 01:18:10;;;;;;;0.10;0.10;;;;;;;;;;5054261;28;20449;-61
2021/01/26 01:20:37;;;;;;;0.83;0.50;;;;;;;;;;5047901;28;20715;-63
2021/01/26 01:23:04;;;;;;;0.63;0.30;;;;;;;;;;5052661;28;20194;-61
2021/01/26 01:25:31;;;;;;;0.00;0.00;;;;;;;;;;5056866;28;20234;-63
2021/01/26 01:27:58;;;;;;;0.00;0.00;;;;;;;;;;5051727;28;20248;-62
2021/01/26 01:30:26;;;;;;;0.20;0.20;;;;;;;;;;5056060;28;20187;-61
2021/01/26 01:32:53;;;;;;;0.00;0.00;;;;;;;;;;5054365;28;20639;-62
2021/01/26 01:35:22;;;;;;;0.10;0.10;;;;;;;;;;5053139;28;20281;-64
2021/01/26 01:37:49;;;;;;;0.27;0.27;;;;;;;;;;5057496;28;20203;-63
2021/01/26 01:40:18;;;;;;;0.30;0.23;;;;;;;;;;5055593;28;20228;-64
2021/01/26 01:42:46;;;;;;;0.00;0.00;;;;;;;;;;5050330;28;20189;-61
2021/01/26 01:45:15;;;;;;;0.10;0.10;;;;;;;;;;5046164;28;20978;-61
2021/01/26 01:47:44;;;;;;;0.23;0.10;;;;;;;;;;5048725;28;20197;-63
2021/01/26 01:50:17;;;;;;;0.40;0.40;;;;;;;;;;5062446;28;20181;-62
2021/01/26 01:52:44;;;;;;;0.10;0.10;;;;;;;;;;5082141;22;20246;-69
2021/01/26 01:55:16;;;;;;;0.00;0.00;;;;;;;;;;5031919;28;20858;-70
2021/01/26 01:57:55;;;;;;;0.47;0.47;;;;;;;;;;5037489;28;20195;-70
2021/01/26 02:00:23;;;;;;;0.17;0.17;;;;;;;;;;5037235;28;20221;-71
2021/01/26 02:03:00;;;;;;;0.47;0.40;;;;;;;;;;5032077;28;20217;-69
2021/01/26 02:05:27;;;;;;;0.00;0.00;;;;;;;;;;5036807;28;20191;-70
2021/01/26 02:07:56;;;;;;;0.47;0.20;;;;;;;;;;5040000;28;20210;-72
2021/01/26 02:10:23;;;;;;;0.10;0.10;;;;;;;;;;5044593;28;20228;-68
2021/01/26 02:12:50;;;;;;;0.10;0.10;;;;;;;;;;5038241;28;20194;-68
2021/01/26 02:15:17;;;;;;;0.00;0.00;;;;;;;;;;5040940;28;20194;-69
2021/01/26 02:17:47;;;;;;;1.03;0.50;;;;;;;;;;5043885;28;20213;-69
2021/01/26 02:20:33;;;;;;;0.10;0.10;;;;;;;;;;5043296;28;20209;-68
2021/01/26 02:23:17;;;;;;;0.33;0.33;;;;;;;;;;5037545;28;20938;-72
2021/01/26 02:25:47;;;;;;;0.07;0.07;;;;;;;;;;5036897;28;20820;-71
2021/01/26 02:28:26;;;;;;;1.60;0.40;;;;;;;;;;5038238;28;20191;-68
2021/01/26 02:31:10;;;;;;;0.17;0.17;;;;;;;;;;5039518;28;20188;-71
2021/01/26 02:33:42;;;;;;;0.00;0.00;;;;;;;;;;5038027;28;20263;-71
2021/01/26 02:36:38;;;;;;;0.10;0.10;;;;;;;;;;5041186;28;20204;-71
2021/01/26 02:39:23;;;;;;;0.00;0.00;;;;;;;;;;5051095;28;20236;-70
2021/01/26 02:41:49;;;;;;;0.10;0.10;;;;;;;;;;5041370;28;20354;-69
2021/01/26 02:44:24;;;;;;;0.00;0.00;;;;;;;;;;5041892;28;20296;-71
2021/01/26 02:46:59;;;;;;;0.23;0.23;;;;;;;;;;5037881;28;20208;-72
2021/01/26 02:49:33;;;;;;;0.00;0.00;;;;;;;;;;5039726;28;20193;-72
2021/01/26 02:52:27;;;;;;;0.83;0.83;;;;;;;;;;5043766;28;20630;-70
2021/01/26 02:55:05;;;;;;;0.10;0.10;;;;;;;;;;5040895;28;20255;-70
2021/01/26 02:57:38;;;;;;;0.00;0.00;;;;;;;;;;5035680;28;20217;-69
2021/01/26 03:00:16;;;;;;;0.00;0.00;;;;;;;;;;5044861;28;20281;-70
2021/01/26 03:02:46;;;;;;;1.13;0.63;;;;;;;;;;5038720;28;20649;-70
2021/01/26 03:05:23;;;;;;;0.00;0.00;;;;;;;;;;5034377;28;20269;-70
2021/01/26 03:07:55;;;;;;;0.00;0.00;;;;;;;;;;5043655;28;20181;-70
2021/01/26 03:10:24;;;;;;;0.10;0.10;;;;;;;;;;5040183;28;20217;-70
2021/01/26 03:12:55;;;;;;;0.03;0.03;;;;;;;;;;5040173;28;20967;-70
2021/01/26 03:15:24;;;;;;;0.00;0.00;;;;;;;;;;5042925;28;20303;-70
2021/01/26 03:17:53;;;;;;;0.30;0.30;;;;;;;;;;5053039;28;20243;-70
2021/01/26 03:20:23;;;;;;;0.07;0.07;;;;;;;;;;5044452;28;20217;-70
2021/01/26 03:22:52;;;;;;;5.20;1.70;;;;;;;;;;5036762;28;20191;-70
2021/01/26 03:25:21;;;;;;;1.60;1.30;;;;;;;;;;5040062;28;20217;-70
2021/01/26 03:27:48;;;;;;;0.00;0.00;;;;;;;;;;5046547;28;20194;-71
2021/01/26 03:30:19;;;;;;;0.17;0.17;;;;;;;;;;5037005;28;20686;-70
2021/01/26 03:32:48;;;;;;;0.00;0.00;;;;;;;;;;5039185;28;20888;-70
2021/01/26 03:35:16;;;;;;;0.00;0.00;;;;;;;;;;5038674;28;20226;-70
2021/01/26 03:37:44;;;;;;;0.20;0.20;;;;;;;;;;5037166;28;20206;-70
2021/01/26 03:40:11;;;;;;;0.00;0.00;;;;;;;;;;5041005;28;20250;-70
2021/01/26 03:42:37;;;;;;;0.00;0.00;;;;;;;;;;5043846;28;20192;-70
2021/01/26 03:45:04;;;;;;;0.00;0.00;;;;;;;;;;5048374;28;20202;-70
2021/01/26 03:47:40;;;;;;;0.00;0.00;;;;;;;;;;5046359;28;20266;-70
2021/01/26 03:50:25;;;;;;;0.00;0.00;;;;;;;;;;5043271;28;20456;-70
2021/01/26 03:53:04;;;;;;;0.00;0.00;;;;;;;;;;5044552;28;20840;-70
2021/01/26 03:55:30;;;;;;;0.20;0.20;;;;;;;;;;5049991;28;20210;-69
2021/01/26 14:37:58;;;;;;;0.87;0.50;;;;;;;;;;5084221;27;21128;-62
2021/01/26 14:40:25;;;;;;;0.10;0.10;;;;;;;;;;5078372;28;20264;-62
2021/01/26 14:42:51;;;;;;;8.93;3.00;;;;;;;;;;5079239;28;20236;-62
2021/01/26 14:45:19;;;;;;;0.40;0.40;;;;;;;;;;5079544;28;20228;-63
2021/01/26 14:47:46;;;;;;;0.10;0.10;;;;;;;;;;5080234;28;20179;-62
2021/01/26 14:50:14;;;;;;;0.27;0.27;;;;;;;;;;5079355;28;20186;-63
2021/01/26 14:52:41;;;;;;;0.20;0.20;;;;;;;;;;5079013;28;20194;-63
2021/01/26 14:55:08;;;;;;;0.90;0.57;;;;;;;;;;5078834;28;20273;-62
2021/01/26 14:57:34;;;;;;;0.10;0.10;;;;;;;;;;5078613;28;20225;-63
2021/01/26 15:00:01;;;;;;;0.10;0.10;;;;;;;;;;5079503;28;20189;-64
2021/01/26 15:02:28;;;;;;;0.20;0.20;;;;;;;;;;5078166;28;20815;-62
2021/01/26 15:04:54;;;;;;;1.70;0.93;;;;;;;;;;5061694;28;20178;-64
2021/01/26 15:07:21;;;;;;;2.33;1.13;;;;;;;;;;5074368;28;20276;-62
2021/01/26 15:09:48;;;;;;;0.10;0.10;;;;;;;;;;5073716;28;20201;-65
2021/01/26 15:12:14;;;;;;;2.83;0.60;;;;;;;;;;5074517;28;20293;-63
2021/01/26 15:14:41;;;;;;;0.20;0.20;;;;;;;;;;5074048;28;20514;-61
2021/01/26 15:17:07;;;;;;;0.73;0.20;;;;;;;;;;5073637;28;20362;-62
2021/01/26 15:19:34;;;;;;;0.20;0.20;;;;;;;;;;5077506;28;20201;-64
2021/01/26 15:22:00;;;;;;;0.10;0.10;;;;;;;;;;5074948;28;20181;-62
2021/01/26 15:24:30;;;;;;;0.10;0.10;;;;;;;;;;5072540;28;20174;-64
2021/01/26 15:26:57;;;;;;;0.70;0.30;;;;;;;;;;5075256;28;20188;-62
2021/01/26 15:29:23;;;;;;;0.20;0.20;;;;;;;;;;5081650;28;20247;-62
2021/01/26 15:31:51;;;;;;;4.00;1.70;;;;;;;;;;5077496;28;20178;-61
2021/01/26 15:34:17;;;;;;;0.30;0.30;;;;;;;;;;5075837;28;20529;-63
2021/01/26 15:36:45;;;;;;;1.30;0.57;;;;;;;;;;5075047;28;20242;-63
2021/01/26 15:39:12;;;;;;;0.47;0.30;;;;;;;;;;5075503;28;20216;-61
2021/01/26 15:41:39;;;;;;;1.93;0.47;;;;;;;;;;5073700;28;20198;-64
2021/01/26 15:44:06;;;;;;;0.60;0.60;;;;;;;;;;5071829;28;20190;-62
2021/01/26 15:46:32;;;;;;;2.37;0.93;;;;;;;;;;5069536;28;20189;-62
2021/01/26 15:49:01;;;;;;;5.13;0.63;;;;;;;;;;5042405;28;20671;-63
2021/01/26 15:51:28;;;;;;;0.30;0.30;;;;;;;;;;5057095;28;20191;-64
2021/01/26 15:53:55;;;;;;;1.03;0.93;;;;;;;;;;5067894;28;20179;-62
2021/01/26 15:56:23;;;;;;;0.50;0.30;;;;;;;;;;5064817;28;20222;-63
2021/01/26 15:58:50;;;;;;;0.10;0.10;;;;;;;;;;5060572;28;20222;-61
2021/01/26 16:01:16;;;;;;;1.97;1.17;;;;;;;;;;5057570;28;20712;-61
2021/01/26 16:03:43;;;;;;;1.93;1.23;;;;;;;;;;5063733;28;20706;-63
2021/01/26 16:06:14;;;;;;;5.93;3.57;;;;;;;;;;5063850;28;20194;-61
2021/01/26 16:08:41;;;;;;;0.90;0.43;;;;;;;;;;5057465;28;20193;-61
2021/01/26 16:11:08;;;;;;;0.80;0.73;;;;;;;;;;5064623;28;20717;-61
2021/01/26 16:13:35;;;;;;;2.40;0.67;;;;;;;;;;5058581;28;20225;-63
2021/01/26 16:16:04;;;;;;;5.20;1.07;;;;;;;;;;5058655;28;20277;-62
2021/01/26 16:18:31;;;;;;;2.57;0.63;;;;;;;;;;5064234;28;20195;-62
2021/01/26 16:20:58;;;;;;;0.40;0.27;;;;;;;;;;5064111;28;20190;-62
2021/01/26 16:23:24;;;;;;;0.57;0.50;;;;;;;;;;5062697;28;21012;-63
2021/01/26 16:25:51;;;;;;;0.10;0.10;;;;;;;;;;5063071;28;20241;-63
2021/01/26 16:28:19;;;;;;;6.20;1.70;;;;;;;;;;5056246;28;20187;-61
2021/01/26 16:30:45;;;;;;;0.50;0.30;;;;;;;;;;5076579;28;20183;-63
2021/01/26 16:33:12;;;;;;;0.87;0.50;;;;;;;;;;5065113;28;20198;-62
2021/01/26 16:35:39;;;;;;;3.70;0.80;;;;;;;;;;5060984;28;20259;-61
2021/01/26 16:38:06;;;;;;;1.90;0.40;;;;;;;;;;5070851;28;20189;-62
2021/01/26 16:40:33;;;;;;;0.50;0.30;;;;;;;;;;5060547;28;20723;-63
2021/01/26 16:43:01;;;;;;;1.80;0.40;;;;;;;;;;5050790;28;20195;-62
2021/01/26 16:45:28;;;;;;;0.40;0.40;;;;;;;;;;5061530;28;20183;-62
2021/01/26 16:47:56;;;;;;;0.10;0.10;;;;;;;;;;5063473;28;20191;-63
2021/01/26 16:50:28;;;;;;;0.10;0.10;;;;;;;;;;5063911;28;20277;-63
2021/01/26 16:52:54;;;;;;;0.10;0.10;;;;;;;;;;5061497;28;20183;-62
2021/01/26 16:55:21;;;;;;;0.63;0.60;;;;;;;;;;5061748;28;20203;-62
2021/01/26 16:57:48;;;;;;;1.37;0.87;;;;;;;;;;5061696;28;20222;-63
2021/01/26 17:00:20;;;;;;;0.60;0.23;;;;;;;;;;5056904;28;20185;-63
2021/01/26 17:02:47;;;;;;;0.67;0.67;;;;;;;;;;5062000;28;20633;-61
2021/01/26 17:05:14;;;;;;;0.70;0.70;;;;;;;;;;5057667;28;20236;-62
2021/01/26 17:07:40;;;;;;;2.20;0.77;;;;;;;;;;5054024;28;20203;-61
2021/01/26 17:10:07;;;;;;;2.03;0.80;;;;;;;;;;5050239;28;20419;-61
2021/01/26 17:12:34;;;;;;;12.83;1.47;;;;;;;;;;5062320;28;20367;-63
2021/01/26 17:15:01;;;;;;;0.10;0.10;;;;;;;;;;5063301;28;20179;-61
2021/01/26 17:17:29;;;;;;;0.40;0.40;;;;;;;;;;5063990;28;20220;-62
2021/01/26 17:19:56;;;;;;;0.10;0.10;;;;;;;;;;5061896;28;20202;-63
2021/01/26 17:22:23;;;;;;;1.37;1.27;;;;;;;;;;5062446;28;20749;-63
2021/01/26 17:24:53;;;;;;;1.00;0.83;;;;;;;;;;5063015;28;20589;-62
2021/01/26 17:27:23;;;;;;;20.40;1.77;;;;;;;;;;5065905;28;20190;-63
2021/01/26 17:29:50;;;;;;;0.10;0.10;;;;;;;;;;5062866;28;20183;-64
2021/01/26 17:32:17;;;;;;;2.43;1.20;;;;;;;;;;5062410;28;20183;-62
2021/01/26 17:34:44;;;;;;;2.73;0.70;;;;;;;;;;5064101;28;20210;-63
2021/01/26 17:37:11;;;;;;;0.10;0.10;;;;;;;;;;5061882;28;20247;-61
2021/01/26 17:39:37;;;;;;;3.10;0.57;;;;;;;;;;5060900;28;20186;-63
2021/01/26 17:42:05;;;;;;;0.50;0.50;;;;;;;;;;5063943;28;20249;-63
2021/01/26 17:44:37;;;;;;;0.23;0.23;;;;;;;;;;5063654;28;20187;-62
2021/01/26 17:47:03;;;;;;;1.60;1.50;;;;;;;;;;5059202;28;20603;-62
2021/01/26 17:49:30;;;;;;;2.47;1.03;;;;;;;;;;5061332;28;20183;-61
2021/01/26 17:51:56;;;;;;;0.63;0.53;;;;;;;;;;5061121;28;20638;-62
2021/01/26 17:54:23;;;;;;;5.17;1.10;;;;;;;;;;5068604;28;20187;-62
2021/01/26 17:56:50;;;;;;;0.17;0.17;;;;;;;;;;5060677;28;20229;-63
2021/01/26 17:59:17;;;;;;;0.10;0.10;;;;;;;;;;5060306;28;20187;-61
2021/01/26 18:01:44;;;;;;;0.47;0.20;;;;;;;;;;5059639;28;20192;-62
2021/01/26 18:04:11;;;;;;;2.47;0.77;;;;;;;;;;5061474;28;20236;-63
2021/01/26 18:06:37;;;;;;;0.50;0.50;;;;;;;;;;5067754;28;20174;-62
2021/01/26 18:09:05;;;;;;;0.30;0.30;;;;;;;;;;5069333;28;20182;-62
2021/01/26 18:11:32;;;;;;;0.53;0.53;;;;;;;;;;5051709;28;20181;-62
2021/01/26 18:13:58;;;;;;;1.37;0.80;;;;;;;;;;5059325;28;20182;-63
2021/01/26 18:16:25;;;;;;;1.53;1.33;;;;;;;;;;5059983;28;20217;-62
2021/01/26 18:18:52;;;;;;;2.40;1.20;;;;;;;;;;5058995;28;20492;-62
2021/01/26 18:21:18;;;;;;;2.00;1.77;;;;;;;;;;5060772;28;20190;-64
2021/01/26 18:23:45;;;;;;;0.10;0.10;;;;;;;;;;5060673;28;20303;-62
2021/01/26 18:26:11;;;;;;;1.33;0.63;;;;;;;;;;5056860;28;20187;-63
2021/01/26 18:28:39;;;;;;;0.53;0.53;;;;;;;;;;5058873;28;20225;-63
2021/01/26 18:31:06;;;;;;;3.13;1.87;;;;;;;;;;5060067;28;20456;-61
2021/01/26 18:33:33;;;;;;;3.70;2.10;;;;;;;;;;5055939;28;20286;-61
2021/01/26 18:36:00;;;;;;;2.37;0.87;;;;;;;;;;5060125;28;20271;-61
2021/01/26 18:38:27;;;;;;;2.33;0.87;;;;;;;;;;5059951;28;20193;-61
2021/01/26 18:40:54;;;;;;;2.97;1.70;;;;;;;;;;5060205;28;20183;-62
2021/01/26 18:43:23;;;;;;;0.37;0.37;;;;;;;;;;5060622;28;20174;-62
2021/01/26 18:45:50;;;;;;;0.53;0.53;;;;;;;;;;5058185;28;20191;-63
2021/01/26 18:48:16;;;;;;;0.57;0.57;;;;;;;;;;5058590;28;20183;-62
2021/01/26 18:50:43;;;;;;;2.77;0.83;;;;;;;;;;5059871;28;20186;-63
2021/01/26 18:53:10;;;;;;;2.50;0.63;;;;;;;;;;5059266;28;20183;-62
2021/01/26 18:55:37;;;;;;;1.90;0.30;;;;;;;;;;5058172;28;20175;-62
2021/01/26 18:58:03;;;;;;;0.87;0.50;;;;;;;;;;5060761;28;20183;-64
2021/01/26 19:00:30;;;;;;;0.10;0.10;;;;;;;;;;5059109;28;20180;-62
2021/01/26 19:02:57;;;;;;;6.03;0.53;;;;;;;;;;5058751;28;20176;-63
2021/01/26 19:05:24;;;;;;;1.17;0.53;;;;;;;;;;5058930;28;20608;-64
2021/01/26 19:07:51;;;;;;;1.17;0.73;;;;;;;;;;5059827;28;20564;-62
2021/01/26 19:10:19;;;;;;;10.80;2.43;;;;;;;;;;5052846;28;20179;-62
2021/01/26 19:12:46;;;;;;;0.20;0.20;;;;;;;;;;5058135;28;20224;-62
2021/01/26 19:15:14;;;;;;;1.13;1.13;;;;;;;;;;5057172;28;20186;-63
2021/01/26 19:17:41;;;;;;;0.30;0.30;;;;;;;;;;5058204;28;20585;-62
2021/01/26 19:20:09;;;;;;;0.10;0.10;;;;;;;;;;5051896;28;20248;-62
2021/01/26 19:22:35;;;;;;;0.33;0.33;;;;;;;;;;5046992;28;20183;-63
2021/01/26 19:25:03;;;;;;;1.80;1.70;;;;;;;;;;5056143;28;20363;-63
2021/01/26 19:27:30;;;;;;;0.77;0.40;;;;;;;;;;5058926;28;20182;-61
2021/01/26 19:29:57;;;;;;;1.23;0.50;;;;;;;;;;5059521;28;20688;-62
2021/01/26 19:32:23;;;;;;;0.10;0.10;;;;;;;;;;5045637;28;20186;-63
2021/01/26 19:34:50;;;;;;;0.67;0.43;;;;;;;;;;5062359;28;20233;-61
2021/01/26 19:37:17;;;;;;;0.50;0.50;;;;;;;;;;5058615;28;20235;-61
2021/01/26 19:39:43;;;;;;;0.30;0.20;;;;;;;;;;5065107;28;20253;-64
2021/01/26 19:42:10;;;;;;;0.40;0.40;;;;;;;;;;5066299;28;20652;-62
2021/01/26 19:44:40;;;;;;;0.53;0.53;;;;;;;;;;5065506;28;20209;-63
2021/01/26 19:47:07;;;;;;;0.37;0.37;;;;;;;;;;5064288;28;20199;-62
2021/01/26 19:49:34;;;;;;;0.10;0.10;;;;;;;;;;5063642;28;20193;-63
2021/01/26 19:52:00;;;;;;;0.70;0.50;;;;;;;;;;5064167;28;20187;-61
2021/01/26 19:54:27;;;;;;;4.03;2.90;;;;;;;;;;5064306;28;20187;-62
2021/01/26 19:56:56;;;;;;;2.00;0.80;;;;;;;;;;5058370;28;20704;-64
2021/01/26 19:59:22;;;;;;;1.03;1.03;;;;;;;;;;5055916;28;20175;-64
2021/01/26 20:01:49;;;;;;;1.83;1.73;;;;;;;;;;5059319;28;20651;-62
2021/01/26 20:04:15;;;;;;;0.13;0.13;;;;;;;;;;5057599;28;20194;-62
2021/01/26 20:06:42;;;;;;;0.10;0.10;;;;;;;;;;5063073;28;20637;-63
2021/01/26 20:09:09;;;;;;;1.97;0.97;;;;;;;;;;5063049;28;20730;-62
2021/01/26 20:11:35;;;;;;;0.27;0.20;;;;;;;;;;5065501;28;20623;-63
2021/01/26 20:14:02;;;;;;;0.10;0.10;;;;;;;;;;5064879;28;20214;-63
2021/01/26 20:16:28;;;;;;;3.47;1.67;;;;;;;;;;5063853;28;20774;-62
2021/01/26 20:18:55;;;;;;;1.20;0.30;;;;;;;;;;5066187;28;20256;-64
2021/01/26 20:21:22;;;;;;;0.00;0.00;;;;;;;;;;5065111;28;20190;-62
2021/01/26 20:23:49;;;;;;;0.00;0.00;;;;;;;;;;5065326;28;20648;-64
2021/01/26 20:26:16;;;;;;;0.70;0.70;;;;;;;;;;5063779;28;20187;-63
2021/01/26 20:28:43;;;;;;;3.10;1.60;;;;;;;;;;5060819;28;20193;-62
2021/01/26 20:31:13;;;;;;;1.17;0.70;;;;;;;;;;5061666;28;20183;-62
2021/01/26 20:33:40;;;;;;;0.10;0.10;;;;;;;;;;5061377;28;20218;-61
2021/01/26 20:36:06;;;;;;;0.10;0.10;;;;;;;;;;5063817;28;20597;-62
2021/01/26 20:38:33;;;;;;;2.73;2.63;;;;;;;;;;5063201;28;20183;-65
2021/01/26 20:40:59;;;;;;;0.10;0.10;;;;;;;;;;5067050;28;20249;-62
2021/01/26 20:43:26;;;;;;;0.83;0.47;;;;;;;;;;5055515;28;20257;-61
2021/01/26 20:45:53;;;;;;;0.30;0.30;;;;;;;;;;5061459;28;20187;-64
2021/01/26 20:48:20;;;;;;;0.20;0.20;;;;;;;;;;5057573;28;20192;-63
2021/01/26 20:50:49;;;;;;;2.77;0.70;;;;;;;;;;5065443;28;20197;-62
2021/01/26 20:53:16;;;;;;;0.10;0.10;;;;;;;;;;5062762;28;20197;-64
2021/01/26 20:55:42;;;;;;;0.00;0.00;;;;;;;;;;5062802;28;21096;-65
2021/01/26 20:58:09;;;;;;;0.10;0.10;;;;;;;;;;5059762;28;20183;-64
2021/01/26 21:00:38;;;;;;;0.60;0.60;;;;;;;;;;5060797;28;20194;-62
2021/01/26 21:03:06;;;;;;;0.03;0.03;;;;;;;;;;5060214;28;20175;-63
2021/01/26 21:05:33;;;;;;;0.03;0.03;;;;;;;;;;5061166;28;20217;-64
2021/01/26 21:08:01;;;;;;;0.10;0.10;;;;;;;;;;5059835;28;20191;-63
2021/01/26 21:10:29;;;;;;;1.70;1.13;;;;;;;;;;5057640;28;20187;-64
2021/01/26 21:12:56;;;;;;;0.20;0.20;;;;;;;;;;5058787;28;20190;-63
2021/01/26 21:15:25;;;;;;;0.00;0.00;;;;;;;;;;5062777;28;20183;-64
2021/01/26 21:17:51;;;;;;;3.03;0.37;;;;;;;;;;5062587;28;20258;-64
2021/01/26 21:20:19;;;;;;;1.03;0.50;;;;;;;;;;5062372;28;20198;-63
2021/01/26 21:22:53;;;;;;;0.00;0.00;;;;;;;;;;5062958;28;20187;-62
2021/01/26 21:25:22;;;;;;;0.00;0.00;;;;;;;;;;5061865;28;20201;-63
2021/01/26 21:27:49;;;;;;;0.00;0.00;;;;;;;;;;5071368;28;20198;-64
2021/01/26 21:30:17;;;;;;;0.00;0.00;;;;;;;;;;5062790;28;20190;-62
2021/01/26 21:32:44;;;;;;;12.53;5.00;;;;;;;;;;5059116;28;20240;-61
2021/01/26 21:35:12;;;;;;;13.50;4.23;;;;;;;;;;5065437;28;20210;-61
2021/01/26 21:37:39;;;;;;;5.00;1.03;;;;;;;;;;5058332;28;20242;-62
2021/01/26 21:40:07;;;;;;;0.17;0.13;;;;;;;;;;5056404;28;20214;-63
2021/01/26 21:42:35;;;;;;;0.30;0.30;;;;;;;;;;5059138;28;20191;-62
2021/01/26 21:45:03;;;;;;;0.10;0.10;;;;;;;;;;5058741;28;20187;-64
2021/01/26 21:47:30;;;;;;;0.10;0.10;;;;;;;;;;5068173;28;20188;-63
2021/01/26 21:49:57;;;;;;;0.03;0.03;;;;;;;;;;5061472;28;20186;-64
2021/01/26 21:52:23;;;;;;;0.43;0.43;;;;;;;;;;5062499;28;20193;-64
2021/01/26 21:54:50;;;;;;;0.37;0.37;;;;;;;;;;5068806;28;20189;-62
2021/01/26 21:57:16;;;;;;;0.00;0.00;;;;;;;;;;5061131;28;20641;-62
2021/01/26 21:59:44;;;;;;;0.97;0.97;;;;;;;;;;5049717;28;20186;-64
2021/01/26 22:02:10;;;;;;;0.00;0.00;;;;;;;;;;5062569;28;20648;-63
2021/01/26 22:04:38;;;;;;;2.23;0.83;;;;;;;;;;5061060;28;20507;-62
2021/01/26 22:07:05;;;;;;;1.03;0.93;;;;;;;;;;5059376;28;20606;-62
2021/01/26 22:09:33;;;;;;;0.20;0.20;;;;;;;;;;5060792;28;20228;-64
2021/01/26 22:12:00;;;;;;;0.00;0.00;;;;;;;;;;5059839;28;20181;-63
2021/01/26 22:14:26;;;;;;;0.87;0.10;;;;;;;;;;5060573;28;20180;-63
2021/01/26 22:16:53;;;;;;;0.00;0.00;;;;;;;;;;5058019;28;20219;-63
2021/01/26 22:19:20;;;;;;;0.10;0.10;;;;;;;;;;5059278;28;20186;-63
2021/01/26 22:21:46;;;;;;;0.00;0.00;;;;;;;;;;5059879;28;20251;-63
2021/01/26 22:24:13;;;;;;;0.23;0.23;;;;;;;;;;5060662;28;20186;-64
2021/01/26 22:26:40;;;;;;;0.13;0.13;;;;;;;;;;5060721;28;20645;-61
2021/01/26 22:29:08;;;;;;;0.30;0.30;;;;;;;;;;5059220;28;20183;-63
2021/01/26 22:31:34;;;;;;;0.10;0.10;;;;;;;;;;5058272;28;20293;-64
2021/01/26 22:34:01;;;;;;;0.00;0.00;;;;;;;;;;5064583;28;20185;-63
2021/01/26 22:36:28;;;;;;;0.00;0.00;;;;;;;;;;5059735;28;20229;-64
2021/01/26 22:38:55;;;;;;;0.10;0.10;;;;;;;;;;5059786;28;20897;-64
2021/01/26 22:41:22;;;;;;;1.60;0.73;;;;;;;;;;5057284;28;20190;-63
2021/01/26 22:43:49;;;;;;;0.57;0.40;;;;;;;;;;5064529;28;20185;-63
2021/01/26 22:46:18;;;;;;;0.10;0.10;;;;;;;;;;5061172;28;20193;-63
2021/01/26 22:48:45;;;;;;;0.20;0.20;;;;;;;;;;5060644;28;20207;-64
2021/01/26 22:51:11;;;;;;;0.70;0.60;;;;;;;;;;5058083;28;20678;-62
2021/01/26 22:53:38;;;;;;;10.63;1.20;;;;;;;;;;5058502;28;20225;-62
2021/01/26 22:56:05;;;;;;;0.00;0.00;;;;;;;;;;5042313;28;20201;-63
2021/01/26 22:58:31;;;;;;;0.50;0.50;;;;;;;;;;5061837;28;20251;-63
2021/01/26 23:00:58;;;;;;;0.00;0.00;;;;;;;;;;5067754;28;20186;-64
2021/01/26 23:03:25;;;;;;;0.20;0.20;;;;;;;;;;5061625;28;20183;-63
2021/01/26 23:05:52;;;;;;;0.00;0.00;;;;;;;;;;5060743;28;20269;-61
2021/01/26 23:08:20;;;;;;;1.23;0.30;;;;;;;;;;5058386;28;20213;-63
2021/01/26 23:10:47;;;;;;;0.00;0.00;;;;;;;;;;5040402;28;20665;-62
2021/01/26 23:13:14;;;;;;;0.20;0.20;;;;;;;;;;5060051;28;20181;-64
2021/01/26 23:15:41;;;;;;;0.07;0.07;;;;;;;;;;5062792;28;20280;-62
2021/01/26 23:18:09;;;;;;;0.37;0.37;;;;;;;;;;5068976;28;20321;-62
2021/01/26 23:20:39;;;;;;;0.10;0.10;;;;;;;;;;5058392;28;20182;-63
2021/01/26 23:23:06;;;;;;;0.00;0.00;;;;;;;;;;5060807;28;20316;-63
2021/01/26 23:25:34;;;;;;;0.00;0.00;;;;;;;;;;5062179;28;20185;-63
2021/01/26 23:28:03;;;;;;;0.10;0.10;;;;;;;;;;5053766;28;21602;-62
2021/01/26 23:30:31;;;;;;;0.07;0.07;;;;;;;;;;5055935;28;20708;-61
2021/01/26 23:32:58;;;;;;;0.73;0.73;;;;;;;;;;5047149;28;20218;-64
2021/01/26 23:35:25;;;;;;;9.53;3.30;;;;;;;;;;5059274;28;20201;-63
2021/01/26 23:37:53;;;;;;;1.13;0.50;;;;;;;;;;5055017;28;20340;-62
2021/01/26 23:40:25;;;;;;;0.47;0.33;;;;;;;;;;5061519;28;20224;-62
2021/01/26 23:42:52;;;;;;;0.20;0.17;;;;;;;;;;5044890;28;20182;-62
2021/01/26 23:45:21;;;;;;;0.10;0.10;;;;;;;;;;5059156;28;20231;-62
2021/01/26 23:47:48;;;;;;;0.27;0.20;;;;;;;;;;5058501;28;20668;-62
2021/01/26 23:50:16;;;;;;;0.20;0.20;;;;;;;;;;5061829;28;20328;-61
2021/01/26 23:52:43;;;;;;;0.43;0.33;;;;;;;;;;5065507;28;20182;-62
2021/01/26 23:55:10;;;;;;;0.00;0.00;;;;;;;;;;5045043;28;20662;-61
2021/01/26 23:57:37;;;;;;;0.10;0.10;;;;;;;;;;5042846;28;20223;-61
